Time;durP1;ratioP1;P1;durP2;ratioP2;P2;SDS_P1;SDS_P2;PMS_P1;PMS_P2;Temp;Humidity;BMP_temperature;BMP_pressure;BME280_temperature;BME280_humidity;BME280_pressure;Samples;Min_cycle;Max_cycle;Signal;HPM_P1;HPM_P2
2021/12/11 00:04:41;;;;;;;63.28;29.08;;;;;;;0.03;100.00;97053.63;12800743;23;20017;-83
2021/12/11 00:10:08;;;;;;;63.97;30.00;;;;;;;0.11;100.00;97068.81;12838791;23;20024;-83
2021/12/11 00:15:20;;;;;;;62.30;29.92;;;;;;;0.11;100.00;97073.31;12823939;23;20111;-82
2021/12/11 00:20:29;;;;;;;58.42;28.20;;;;;;;0.08;100.00;97085.19;12825420;23;20037;-83
2021/12/11 00:25:43;;;;;;;56.15;27.98;;;;;;;0.08;100.00;97085.19;12814778;23;20031;-81
2021/12/11 00:30:57;;;;;;;;;;;;;;;;;;;;;
2021/12/11 00:36:06;;;;;;;;;;;;;;;0.12;100.00;97109.19;12840070;23;20028;-83
2021/12/11 00:41:40;;;;;;;59.88;27.58;;;;;;;0.12;100.00;97122.38;12818196;23;19912;-82
2021/12/11 00:53:38;;;;;;;50.25;24.00;;;;;;;0.15;100.00;97143.69;12824901;23;20032;-83
2021/12/11 00:58:59;;;;;;;49.95;24.30;;;;;;;0.21;100.00;97152.31;12827028;23;20021;-84
2021/12/11 01:05:06;;;;;;;52.22;23.83;;;;;;;0.28;100.00;97161.47;12820147;23;20021;-85
2021/12/11 01:10:25;;;;;;;47.72;21.67;;;;;;;0.28;100.00;97172.03;12846759;23;20025;-84
2021/12/11 01:16:10;;;;;;;;;;;;;;;;;;;;;
2021/12/11 01:22:22;;;;;;;41.42;20.30;;;;;;;0.33;100.00;97183.56;12833530;23;20047;-85
2021/12/11 01:27:45;;;;;;;49.25;22.55;;;;;;;0.33;100.00;97202.03;12806184;23;20020;-83
2021/12/11 01:32:55;;;;;;;43.70;21.67;;;;;;;0.38;100.00;97215.97;12796188;23;20021;-82
2021/12/11 01:38:07;;;;;;;41.67;20.15;;;;;;;0.47;100.00;97230.13;12810410;23;20021;-81
2021/12/11 01:43:28;;;;;;;41.88;21.05;;;;;;;0.50;100.00;97236.69;12796091;23;20105;-83
2021/12/11 01:49:19;;;;;;;42.00;20.65;;;;;;;0.44;100.00;97245.72;12759428;23;20032;-82
2021/12/11 01:55:15;;;;;;;43.30;20.95;;;;;;;0.45;100.00;97257.84;12809161;23;20029;-82
2021/12/11 02:13:36;;;;;;;38.67;20.05;;;;;;;0.52;100.00;97301.31;12775468;23;20034;-81
2021/12/11 02:19:15;;;;;;;42.70;20.52;;;;;;;0.47;100.00;97292.69;12663124;23;20026;-82
2021/12/11 02:25:08;;;;;;;37.95;19.75;;;;;;;0.56;100.00;97310.25;12798324;23;20108;-81
2021/12/11 02:31:00;;;;;;;38.70;18.17;;;;;;;0.60;100.00;97328.16;12802067;23;20119;-81
2021/12/11 02:36:56;;;;;;;38.38;19.55;;;;;;;0.57;100.00;97326.88;12806511;23;20048;-80
2021/12/11 02:42:35;;;;;;;36.70;18.98;;;;;;;0.62;100.00;97340.00;12825426;23;20005;-82
2021/12/11 02:47:55;;;;;;;36.38;17.33;;;;;;;0.59;100.00;97350.38;12843694;23;20064;-81
2021/12/11 02:53:25;;;;;;;40.33;18.55;;;;;;;0.76;100.00;97353.34;12840289;23;20069;-80
2021/12/11 02:58:56;;;;;;;34.15;16.92;;;;;;;0.81;100.00;97361.19;12838493;23;20021;-82
2021/12/11 03:04:31;;;;;;;34.67;17.27;;;;;;;0.80;100.00;97367.53;12853653;23;20036;-82
2021/12/11 03:09:56;;;;;;;32.00;16.80;;;;;;;0.73;100.00;97375.81;12874229;23;20095;-81
2021/12/11 03:14:58;;;;;;;33.90;16.38;;;;;;;0.82;100.00;97379.41;12882873;23;20017;-83
2021/12/11 03:26:25;;;;;;;30.50;15.45;;;;;;;0.75;100.00;97410.66;12864480;23;20055;-82
2021/12/11 03:31:44;;;;;;;30.73;16.73;;;;;;;0.65;100.00;97415.25;12890798;22;20016;-86
2021/12/11 03:36:59;;;;;;;30.67;15.15;;;;;;;0.54;100.00;97425.91;12886110;22;20021;-84
2021/12/11 03:42:24;;;;;;;;;;;;;;;;;;;;;
2021/12/11 03:47:38;;;;;;;32.72;15.13;;;;;;;0.52;100.00;97449.16;12908210;22;20028;-83
2021/12/11 03:53:34;;;;;;;32.13;15.73;;;;;;;0.58;100.00;97455.19;12910706;22;20009;-83
2021/12/11 03:58:48;;;;;;;32.85;14.63;;;;;;;0.57;100.00;97467.59;12903127;22;20031;-81
2021/12/11 04:04:21;;;;;;;;;;;;;;;;;;;;;
2021/12/11 04:09:36;;;;;;;33.10;15.23;;;;;;;0.44;100.00;97489.34;12895329;22;20048;-81
2021/12/11 04:14:48;;;;;;;34.40;17.10;;;;;;;0.36;100.00;97497.06;12880745;23;20004;-85
2021/12/11 04:19:57;;;;;;;31.02;15.25;;;;;;;0.31;100.00;97507.66;12891510;23;20028;-83
2021/12/11 04:25:16;;;;;;;31.88;15.50;;;;;;;0.34;100.00;97520.31;12844919;23;20040;-82
2021/12/11 04:30:37;;;;;;;32.78;15.90;;;;;;;0.26;100.00;97529.59;12888621;22;20023;-82
2021/12/11 04:35:47;;;;;;;35.45;15.85;;;;;;;0.44;100.00;97538.72;12875116;23;20071;-82
2021/12/11 04:41:02;;;;;;;;;;;;;;;0.41;100.00;97550.63;12887654;23;20036;-82
2021/12/11 04:46:15;;;;;;;40.28;16.63;;;;;;;0.36;100.00;97563.84;12907935;22;19904;-82
2021/12/11 04:51:32;;;;;;;36.88;17.52;;;;;;;0.49;100.00;97570.38;12899442;23;20025;-81
2021/12/11 04:57:06;;;;;;;35.20;17.38;;;;;;;0.47;100.00;97580.41;12889861;23;20016;-81
2021/12/11 05:07:34;;;;;;;40.25;17.50;;;;;;;0.64;100.00;97595.84;12781573;23;20017;-80
2021/12/11 05:12:37;;;;;;;41.42;17.08;;;;;;;0.60;100.00;97608.84;12825102;23;20028;-80
2021/12/11 05:17:38;;;;;;;43.83;19.20;;;;;;;0.66;100.00;97615.66;12802729;23;20017;-80
2021/12/11 05:22:41;;;;;;;43.33;19.27;;;;;;;0.61;100.00;97623.59;12800461;23;20012;-81
2021/12/11 05:27:43;;;;;;;;;;;;;;;0.65;100.00;97634.44;12778672;23;20163;-81
2021/12/11 05:32:44;;;;;;;39.65;17.00;;;;;;;0.63;100.00;97647.09;12809327;23;19939;-82
2021/12/11 05:37:49;;;;;;;36.05;17.42;;;;;;;0.65;100.00;97647.63;12811076;23;20001;-81
2021/12/11 05:42:52;;;;;;;35.28;15.88;;;;;;;0.61;100.00;97654.50;12836277;23;20021;-82
2021/12/11 05:47:53;;;;;;;;;;;;;;;0.66;100.00;97667.69;12816172;23;20017;-81
2021/12/11 05:52:55;;;;;;;39.50;17.02;;;;;;;0.65;100.00;97680.09;12806862;23;19998;-80
2021/12/11 05:57:58;;;;;;;38.50;17.40;;;;;;;0.65;100.00;97690.66;12806342;23;20021;-83
2021/12/11 06:03:04;;;;;;;49.80;18.47;;;;;;;0.65;100.00;97695.94;12835057;23;20001;-84
2021/12/11 06:08:07;;;;;;;40.58;16.70;;;;;;;0.59;100.00;97710.22;12815474;23;20061;-84
2021/12/11 06:13:10;;;;;;;36.73;17.23;;;;;;;0.57;100.00;97728.19;12847570;23;20071;-84
2021/12/11 06:18:15;;;;;;;39.00;16.88;;;;;;;0.77;100.00;97730.72;12844652;23;20064;-82
2021/12/11 06:23:22;;;;;;;36.42;16.90;;;;;;;0.78;100.00;97745.53;12815353;23;20113;-84
2021/12/11 06:28:26;;;;;;;37.40;17.65;;;;;;;0.72;100.00;97756.38;12837887;23;20021;-82
2021/12/11 06:33:28;;;;;;;38.40;17.73;;;;;;;0.66;100.00;97755.63;12783021;23;20352;-80
2021/12/11 06:38:35;;;;;;;37.75;17.42;;;;;;;0.65;100.00;97775.19;12777444;23;20024;-80
2021/12/11 06:43:36;;;;;;;40.53;17.45;;;;;;;0.63;100.00;97789.69;12783053;23;20021;-80
2021/12/11 06:48:37;;;;;;;42.45;19.23;;;;;;;0.68;100.00;97808.16;12815158;23;20005;-79
2021/12/11 06:53:46;;;;;;;39.28;17.52;;;;;;;0.64;100.00;97813.22;12773835;23;20048;-80
2021/12/11 06:58:53;;;;;;;97.78;42.97;;;;;;;0.68;100.00;97838.00;12809798;23;20017;-81
2021/12/11 07:03:59;;;;;;;40.22;17.25;;;;;;;0.76;100.00;97850.66;12806201;23;20029;-80
2021/12/11 07:09:05;;;;;;;32.75;15.60;;;;;;;0.82;100.00;97868.09;12810645;23;20033;-82
2021/12/11 07:14:07;;;;;;;33.25;15.13;;;;;;;0.79;100.00;97887.09;12814923;23;20035;-84
2021/12/11 07:19:09;;;;;;;31.10;15.98;;;;;;;0.77;100.00;97902.41;12826178;23;20064;-83
2021/12/11 07:24:14;;;;;;;35.07;15.77;;;;;;;0.83;100.00;97903.22;12805048;23;20027;-84
2021/12/11 07:29:19;;;;;;;35.97;15.98;;;;;;;0.85;100.00;97919.56;12812754;23;20024;-81
2021/12/11 07:34:25;;;;;;;33.92;15.77;;;;;;;0.90;100.00;97921.41;12814067;23;20113;-81
2021/12/11 07:39:28;;;;;;;38.78;16.55;;;;;;;0.83;100.00;97940.19;12839471;23;20044;-83
2021/12/11 07:44:57;;;;;;;33.75;16.77;;;;;;;0.80;100.00;97949.41;12791184;23;20025;-84
2021/12/11 07:50:45;;;;;;;36.45;17.88;;;;;;;0.85;100.00;97965.28;12826565;23;20016;-83
2021/12/11 07:56:20;;;;;;;35.75;16.77;;;;;;;0.87;100.00;97974.78;12886157;23;20021;-82
2021/12/11 08:08:10;;;;;;;36.22;16.33;;;;;;;1.03;100.00;97994.84;12904453;23;20009;-82
2021/12/11 08:13:25;;;;;;;35.60;17.10;;;;;;;1.09;100.00;98006.97;12852169;23;20016;-82
2021/12/11 08:18:28;;;;;;;34.73;16.33;;;;;;;1.07;100.00;98019.66;12864702;23;20016;-83
2021/12/11 08:29:10;;;;;;;38.67;19.02;;;;;;;1.19;100.00;98036.03;12896974;23;20016;-82
2021/12/11 08:34:49;;;;;;;40.13;18.10;;;;;;;1.12;100.00;98040.81;12875454;23;20047;-83
2021/12/11 08:39:59;;;;;;;45.13;20.50;;;;;;;1.28;100.00;98062.69;12861627;23;20039;-83
2021/12/11 08:45:44;;;;;;;36.17;18.42;;;;;;;1.35;100.00;98071.94;12883364;23;20012;-82
2021/12/11 08:51:01;;;;;;;34.97;16.83;;;;;;;1.33;100.00;98073.28;12854729;23;20020;-81
2021/12/11 08:56:13;;;;;;;32.75;16.45;;;;;;;1.33;100.00;98089.94;12890943;23;20024;-82
2021/12/11 09:01:47;;;;;;;32.38;17.20;;;;;;;1.35;100.00;98098.38;12853404;23;20024;-83
2021/12/11 09:06:59;;;;;;;33.53;16.57;;;;;;;1.41;100.00;98107.91;12827101;23;20048;-82
2021/12/11 09:12:17;;;;;;;32.80;16.90;;;;;;;1.30;100.00;98119.53;12897348;23;20635;-83
2021/12/11 09:17:43;;;;;;;33.17;15.75;;;;;;;1.49;100.00;98125.06;12894590;23;20025;-84
2021/12/11 09:23:02;;;;;;;29.45;16.38;;;;;;;1.54;100.00;98140.91;12900671;23;20027;-83
2021/12/11 09:28:11;;;;;;;31.73;16.27;;;;;;;1.58;100.00;98154.41;12859513;23;20094;-83
2021/12/11 09:33:35;;;;;;;32.00;15.88;;;;;;;1.57;100.00;98172.13;12896759;23;20031;-84
2021/12/11 09:39:04;;;;;;;29.50;15.82;;;;;;;1.67;100.00;98176.63;12866152;23;20004;-84
2021/12/11 09:44:08;;;;;;;30.77;17.27;;;;;;;1.71;100.00;98177.66;12857063;23;20107;-82
2021/12/11 09:49:19;;;;;;;32.10;16.52;;;;;;;1.86;100.00;98188.22;12872277;23;20039;-83
2021/12/11 09:54:28;;;;;;;28.98;14.52;;;;;;;2.06;100.00;98191.88;12902086;23;20031;-83
2021/12/11 09:59:38;;;;;;;27.70;14.77;;;;;;;2.19;100.00;98194.72;12899462;23;20024;-83
2021/12/11 10:04:47;;;;;;;27.88;15.05;;;;;;;2.21;100.00;98189.19;12831259;23;20035;-82
2021/12/11 10:09:56;;;;;;;27.33;14.80;;;;;;;2.28;100.00;98197.63;12903917;23;20005;-81
2021/12/11 10:15:06;;;;;;;26.77;14.85;;;;;;;2.34;100.00;98203.69;12912685;23;20020;-81
2021/12/11 10:20:48;;;;;;;27.05;14.55;;;;;;;2.48;100.00;98207.34;12891081;23;20027;-82
2021/12/11 10:26:18;;;;;;;26.27;14.38;;;;;;;2.39;100.00;98212.44;12910471;23;20011;-83
2021/12/11 10:31:36;;;;;;;28.83;15.95;;;;;;;2.32;100.00;98222.50;12911061;23;20017;-81
2021/12/11 10:37:05;;;;;;;28.23;16.48;;;;;;;2.34;100.00;98225.66;12886947;23;20043;-82
2021/12/11 10:43:19;;;;;;;29.15;15.60;;;;;;;2.28;100.00;98243.41;12909776;23;20004;-82
2021/12/11 10:48:28;;;;;;;25.48;14.60;;;;;;;2.30;100.00;98250.31;12665853;23;20025;-82
2021/12/11 10:53:42;;;;;;;23.25;13.52;;;;;;;2.16;100.00;98255.38;12891678;23;20068;-82
2021/12/11 10:58:59;;;;;;;29.05;14.90;;;;;;;2.18;100.00;98266.50;12860018;23;20098;-82
2021/12/11 11:04:31;;;;;;;25.50;13.93;;;;;;;2.43;100.00;98270.94;12860051;23;20024;-83
2021/12/11 11:10:06;;;;;;;23.92;13.95;;;;;;;2.49;100.00;98257.41;12865440;23;20031;-80
2021/12/11 11:15:16;;;;;;;21.45;13.15;;;;;;;2.56;100.00;98271.16;12859615;23;20021;-81
2021/12/11 11:20:47;;;;;;;;;;;;;;;;;;;;;
2021/12/11 11:26:25;;;;;;;21.02;12.88;;;;;;;2.88;100.00;98295.69;12888879;23;20024;-83
2021/12/11 11:31:44;;;;;;;24.08;14.27;;;;;;;2.98;100.00;98303.56;12859613;23;20023;-82
2021/12/11 11:37:05;;;;;;;22.05;12.07;;;;;;;2.92;100.00;98316.06;12858603;23;20017;-82
2021/12/11 11:42:14;;;;;;;22.63;12.75;;;;;;;2.98;100.00;98322.94;12909149;23;20008;-83
2021/12/11 12:31:29;;;;;;;15.98;10.48;;;;;;;3.05;100.00;98402.97;12768544;23;20073;-83
2021/12/11 12:37:49;;;;;;;18.88;10.75;;;;;;;3.05;100.00;98408.28;12775744;23;20725;-83
2021/12/11 12:49:18;;;;;;;20.70;12.15;;;;;;;2.86;100.00;98447.03;12714466;23;20009;-83
2021/12/11 12:54:59;;;;;;;18.10;10.27;;;;;;;2.90;100.00;98445.44;12779507;23;20013;-83
2021/12/11 13:00:40;;;;;;;18.45;11.25;;;;;;;2.80;100.00;98464.00;12756783;23;20021;-82
2021/12/11 13:06:28;;;;;;;20.17;11.18;;;;;;;2.87;100.00;98483.09;12766943;23;20113;-82
2021/12/11 13:11:43;;;;;;;17.88;10.70;;;;;;;2.61;100.00;98489.47;12747238;23;20023;-83
2021/12/11 13:16:50;;;;;;;18.75;11.63;;;;;;;2.67;100.00;98491.06;12740108;23;20028;-82
2021/12/11 13:22:16;;;;;;;19.15;10.38;;;;;;;2.73;100.00;98490.78;12758767;23;20057;-82
2021/12/11 13:27:29;;;;;;;17.35;11.00;;;;;;;2.87;100.00;98511.44;12720715;23;20029;-82
2021/12/11 13:32:39;;;;;;;19.40;11.05;;;;;;;2.70;100.00;98522.31;12772057;23;20021;-81
2021/12/11 13:37:45;;;;;;;17.73;10.77;;;;;;;2.79;100.00;98520.72;12765014;23;20029;-81
2021/12/11 13:42:49;;;;;;;18.17;11.35;;;;;;;2.84;100.00;98526.03;12711341;23;20025;-84
2021/12/11 13:47:59;;;;;;;20.10;11.43;;;;;;;2.76;100.00;98547.78;12749633;23;20025;-82
2021/12/11 13:53:16;;;;;;;21.25;11.48;;;;;;;2.53;100.00;98554.38;12758247;23;20029;-82
2021/12/11 13:58:17;;;;;;;18.08;11.77;;;;;;;2.43;100.00;98567.59;12765112;23;20025;-83
2021/12/11 14:03:22;;;;;;;22.25;13.23;;;;;;;2.33;100.00;98573.69;12740011;23;20043;-83
2021/12/11 14:08:54;;;;;;;27.70;13.60;;;;;;;2.39;100.00;98582.44;12761696;23;20012;-81
2021/12/11 14:14:00;;;;;;;22.55;12.02;;;;;;;2.38;100.00;98592.25;12747681;23;20009;-83
2021/12/11 14:19:07;;;;;;;26.92;13.48;;;;;;;2.35;100.00;98610.50;12743272;23;20088;-83
2021/12/11 14:24:33;;;;;;;20.25;11.95;;;;;;;2.39;100.00;98611.56;12752827;23;20021;-83
2021/12/11 14:29:36;;;;;;;24.15;12.23;;;;;;;2.33;100.00;98612.59;12761555;23;20001;-85
2021/12/11 14:34:41;;;;;;;19.65;12.13;;;;;;;2.35;100.00;98623.72;12753733;23;20026;-84
2021/12/11 14:39:51;;;;;;;17.50;10.87;;;;;;;2.33;100.00;98633.78;12767284;23;20014;-83
2021/12/11 14:45:01;;;;;;;17.17;11.23;;;;;;;2.28;100.00;98645.16;12759443;23;20021;-83
2021/12/11 14:50:29;;;;;;;16.63;9.82;;;;;;;2.20;100.00;98643.03;12760703;23;20013;-85
2021/12/11 14:56:01;;;;;;;14.80;9.93;;;;;;;2.22;100.00;98659.44;12757580;23;20028;-85
2021/12/11 15:01:38;;;;;;;17.75;11.82;;;;;;;2.16;100.00;98676.34;12760261;23;20012;-84
2021/12/11 15:06:39;;;;;;;15.97;10.23;;;;;;;2.09;100.00;98689.03;12710639;23;20077;-83
2021/12/11 15:11:48;;;;;;;19.60;11.30;;;;;;;2.07;100.00;98699.88;12733599;23;20021;-84
2021/12/11 15:17:01;;;;;;;18.30;12.02;;;;;;;2.09;100.00;98708.34;12756626;23;20632;-83
2021/12/11 15:22:28;;;;;;;24.45;13.05;;;;;;;2.09;100.00;98718.16;12759201;23;20056;-83
2021/12/11 15:32:57;;;;;;;20.80;13.63;;;;;;;1.99;100.00;98734.78;12794584;23;20861;-85
2021/12/11 15:38:29;;;;;;;23.23;14.32;;;;;;;1.96;100.00;98737.94;12767778;23;20009;-83
2021/12/11 15:43:45;;;;;;;;;;;;;;;;;;;;;
2021/12/11 15:49:30;;;;;;;24.20;14.27;;;;;;;1.79;100.00;98747.88;12767812;23;20033;-85
2021/12/11 15:54:45;;;;;;;23.27;14.05;;;;;;;1.99;100.00;98751.44;12758920;23;20029;-83
2021/12/11 15:59:54;;;;;;;26.83;14.90;;;;;;;2.01;100.00;98753.84;12739944;23;20076;-84
2021/12/11 16:05:00;;;;;;;27.08;14.52;;;;;;;1.99;100.00;98759.41;12764222;23;20034;-86
2021/12/11 16:10:20;;;;;;;26.75;15.57;;;;;;;1.84;100.00;98769.09;12735671;23;20196;-85
2021/12/11 16:15:49;;;;;;;28.73;16.88;;;;;;;1.78;100.00;98776.19;12751761;23;20045;-85
2021/12/11 16:21:01;;;;;;;25.10;14.98;;;;;;;1.71;100.00;98784.34;12795292;23;20143;-88
2021/12/11 16:26:11;;;;;;;25.77;15.52;;;;;;;1.57;100.00;98801.69;12868208;23;20021;-84
2021/12/11 16:31:20;;;;;;;24.95;15.45;;;;;;;1.58;100.00;98805.13;12907858;23;20035;-86
2021/12/11 16:36:24;;;;;;;24.52;13.60;;;;;;;1.63;100.00;98815.75;12872405;22;20036;-86
2021/12/11 16:41:42;;;;;;;22.15;13.23;;;;;;;1.63;100.00;98824.47;12892289;23;20024;-84
2021/12/11 16:46:54;;;;;;;20.55;12.20;;;;;;;1.71;100.00;98818.72;12870565;22;20050;-84
2021/12/11 16:52:09;;;;;;;21.08;10.98;;;;;;;1.71;100.00;98825.88;12875038;23;20000;-83
2021/12/11 16:57:13;;;;;;;23.42;12.40;;;;;;;1.59;100.00;98838.47;12856002;23;20054;-81
2021/12/11 17:02:47;;;;;;;18.25;11.50;;;;;;;1.56;100.00;98850.34;12883545;23;20387;-85
2021/12/11 17:08:08;;;;;;;21.65;12.77;;;;;;;1.63;100.00;98853.59;12905115;22;20016;-87
2021/12/11 17:13:11;;;;;;;19.88;11.85;;;;;;;1.53;100.00;98850.03;12887215;22;20596;-85
2021/12/11 17:18:19;;;;;;;18.63;11.57;;;;;;;1.40;100.00;98853.88;12878926;23;20047;-83
2021/12/11 17:23:31;;;;;;;21.20;12.45;;;;;;;1.34;100.00;98868.91;12879610;23;20059;-85
2021/12/11 17:28:39;;;;;;;26.15;14.85;;;;;;;1.34;100.00;98871.53;12869283;23;20024;-83
2021/12/11 17:33:41;;;;;;;26.13;14.82;;;;;;;1.33;100.00;98872.59;12844682;23;20028;-84
2021/12/11 17:38:50;;;;;;;21.38;12.98;;;;;;;1.22;100.00;98881.47;12873550;23;20012;-83
2021/12/11 17:43:57;;;;;;;25.48;13.32;;;;;;;1.19;100.00;98897.00;12855578;23;20071;-84
2021/12/11 17:48:58;;;;;;;24.58;15.10;;;;;;;1.14;100.00;98906.47;12855802;23;20024;-84
2021/12/11 17:54:07;;;;;;;25.92;15.73;;;;;;;1.06;100.00;98903.47;12808885;23;20020;-82
2021/12/11 17:59:38;;;;;;;25.02;15.07;;;;;;;1.02;100.00;98905.00;12845878;23;20020;-87
2021/12/11 18:05:27;;;;;;;27.75;16.17;;;;;;;0.98;100.00;98906.53;12901218;22;20060;-83
2021/12/11 18:11:10;;;;;;;31.02;18.38;;;;;;;0.88;100.00;98911.69;12882705;23;20020;-81
2021/12/11 18:16:57;;;;;;;33.03;18.15;;;;;;;0.85;100.00;98934.91;12890653;23;20025;-84
2021/12/11 18:22:23;;;;;;;39.00;19.98;;;;;;;0.90;100.00;98936.00;12882067;23;20071;-83
2021/12/11 18:27:29;;;;;;;34.55;19.85;;;;;;;0.84;100.00;98938.59;12876250;23;20029;-82
2021/12/11 18:32:31;;;;;;;36.53;21.17;;;;;;;0.81;100.00;98954.13;12881035;22;20036;-85
2021/12/11 18:37:50;;;;;;;34.38;19.55;;;;;;;0.81;100.00;98962.06;12888797;23;20020;-84
2021/12/11 18:43:02;;;;;;;31.35;17.95;;;;;;;0.78;100.00;98960.69;12868893;22;20016;-85
2021/12/11 18:48:24;;;;;;;;;;;;;;;;;;;;;
2021/12/11 18:53:31;;;;;;;31.00;17.98;;;;;;;0.81;100.00;98956.75;12905869;22;20031;-86
2021/12/11 18:59:32;;;;;;;;;;;;;;;;;;;;;
2021/12/11 19:10:20;;;;;;;28.33;17.07;;;;;;;0.79;100.00;98970.22;12845648;23;20024;-84
2021/12/11 19:16:08;;;;;;;30.55;16.98;;;;;;;0.79;100.00;98988.72;12705795;23;20033;-86
2021/12/11 19:21:31;;;;;;;28.08;17.00;;;;;;;0.82;100.00;98993.53;12684128;23;20022;-84
2021/12/11 19:26:36;;;;;;;28.70;16.48;;;;;;;0.82;100.00;98998.81;12777740;23;20053;-83
2021/12/11 19:32:04;;;;;;;;;;;;;;;;;;;;;
2021/12/11 19:37:29;;;;;;;31.30;17.95;;;;;;;0.77;100.00;99011.94;12812163;23;20337;-81
2021/12/11 19:42:39;;;;;;;32.38;18.60;;;;;;;0.84;100.00;99019.72;12823677;23;20024;-85
2021/12/11 19:53:58;;;;;;;38.95;19.27;;;;;;;0.83;100.00;99023.41;12858726;23;20021;-82
2021/12/11 19:59:09;;;;;;;32.07;18.97;;;;;;;0.81;100.00;99036.84;12684385;23;20025;-81
2021/12/11 20:04:16;;;;;;;30.85;19.63;;;;;;;0.90;100.00;99050.44;12791249;23;20006;-83
2021/12/11 20:09:51;;;;;;;32.28;18.27;;;;;;;0.93;100.00;99046.53;12778847;23;20036;-83
2021/12/11 20:15:46;;;;;;;34.35;19.75;;;;;;;0.91;100.00;99052.03;12791220;23;20009;-82
2021/12/11 20:21:18;;;;;;;35.97;19.13;;;;;;;0.76;100.00;99051.81;12786707;23;20017;-81
2021/12/11 20:26:48;;;;;;;37.95;21.10;;;;;;;0.80;100.00;99059.00;12770199;23;20017;-85
2021/12/11 20:31:55;;;;;;;37.30;21.63;;;;;;;0.77;100.00;99069.28;12778191;23;20013;-84
2021/12/11 20:37:30;;;;;;;41.45;21.88;;;;;;;0.73;100.00;99068.13;12786870;23;20026;-84
2021/12/11 20:43:20;;;;;;;37.20;21.80;;;;;;;0.76;100.00;99076.41;12789708;23;20073;-83
2021/12/11 20:48:47;;;;;;;42.95;22.98;;;;;;;0.69;100.00;99096.09;12780827;23;20026;-84
2021/12/11 20:55:06;;;;;;;37.30;21.60;;;;;;;0.72;100.00;99101.69;12799105;23;20025;-81
2021/12/11 21:00:42;;;;;;;42.38;23.10;;;;;;;0.56;100.00;99116.47;12840892;23;20021;-83
2021/12/11 21:06:17;;;;;;;41.58;22.80;;;;;;;0.54;100.00;99115.91;12821727;23;20021;-84
2021/12/11 21:11:38;;;;;;;44.40;24.38;;;;;;;0.56;100.00;99107.75;12823536;23;20013;-83
2021/12/11 21:17:35;;;;;;;50.67;25.30;;;;;;;0.52;100.00;99120.63;12849131;23;20028;-83
2021/12/11 21:23:15;;;;;;;52.63;25.80;;;;;;;0.53;100.00;99126.69;12833311;23;20009;-83
2021/12/11 21:28:24;;;;;;;45.00;25.70;;;;;;;0.56;100.00;99132.31;12869646;23;20016;-80
2021/12/11 21:34:10;;;;;;;52.00;25.95;;;;;;;0.57;100.00;99133.94;12851512;22;20380;-83
2021/12/11 21:39:24;;;;;;;53.90;27.37;;;;;;;0.59;100.00;99146.91;12822967;23;20028;-84
2021/12/11 21:45:24;;;;;;;53.00;26.75;;;;;;;0.63;100.00;99142.72;12800594;23;20025;-82
2021/12/11 21:51:19;;;;;;;49.97;25.05;;;;;;;0.58;100.00;99155.88;12845532;23;20025;-82
2021/12/11 21:56:43;;;;;;;52.42;28.73;;;;;;;0.71;100.00;99154.75;12795472;23;20017;-82
2021/12/11 22:01:58;;;;;;;46.88;25.20;;;;;;;0.65;100.00;99153.88;12817318;23;20024;-83
2021/12/11 22:07:25;;;;;;;48.70;24.50;;;;;;;0.68;100.00;99160.53;12795958;23;20032;-85
2021/12/11 22:12:38;;;;;;;52.78;26.38;;;;;;;0.71;100.00;99183.81;12816728;23;20087;-83
2021/12/11 22:17:46;;;;;;;46.83;24.60;;;;;;;0.75;100.00;99184.97;12822911;23;20067;-84
2021/12/11 22:22:59;;;;;;;50.55;26.15;;;;;;;0.74;100.00;99191.28;12845719;23;20005;-87
2021/12/11 22:28:30;;;;;;;49.17;26.05;;;;;;;0.80;100.00;99204.34;12783570;23;20018;-84
2021/12/11 22:39:08;;;;;;;50.37;26.10;;;;;;;0.80;100.00;99206.19;12777393;23;20010;-81
2021/12/11 22:45:09;;;;;;;49.20;25.85;;;;;;;0.81;100.00;99208.59;12790513;23;20029;-82
2021/12/11 23:07:13;;;;;;;56.83;28.27;;;;;;;0.90;100.00;99224.06;12845675;23;20025;-84
2021/12/11 23:13:00;;;;;;;55.50;25.75;;;;;;;0.89;100.00;99225.09;12840783;23;20097;-84
2021/12/11 23:19:13;;;;;;;50.80;26.60;;;;;;;0.92;100.00;99229.94;12844917;23;20021;-83
2021/12/11 23:24:43;;;;;;;50.63;25.48;;;;;;;0.89;100.00;99235.69;12835329;23;20021;-82
2021/12/11 23:30:36;;;;;;;48.92;24.67;;;;;;;0.93;100.00;99242.13;12760136;23;20009;-82
2021/12/11 23:36:17;;;;;;;46.35;23.73;;;;;;;1.03;100.00;99243.09;12763066;23;20017;-83
2021/12/11 23:42:14;;;;;;;49.30;25.20;;;;;;;1.08;100.00;99242.38;12800114;23;20060;-82
2021/12/11 23:48:11;;;;;;;;;;;;;;;1.08;100.00;99247.66;12844601;23;20096;-84
2021/12/11 23:54:14;;;;;;;50.45;24.60;;;;;;;1.21;100.00;99249.22;12847964;23;19931;-84
